createdAt,value
2022-11-07T00:02:17.850Z,9.87
2022-11-07T00:04:46.961Z,9.95
2022-11-07T00:07:13.682Z,10.01
2022-11-07T00:09:40.233Z,10.07
2022-11-07T00:12:06.861Z,10.09
2022-11-07T00:14:33.561Z,10.16
2022-11-07T00:17:00.044Z,10.21
2022-11-07T00:19:26.606Z,10.26
2022-11-07T00:21:54.474Z,10.34
2022-11-07T00:24:21.065Z,10.39
2022-11-07T00:26:47.991Z,10.47
2022-11-07T00:29:14.827Z,10.54
2022-11-07T00:31:41.435Z,10.53
2022-11-07T00:34:08.116Z,10.51
2022-11-07T00:36:34.591Z,10.46
2022-11-07T00:39:02.613Z,10.42
2022-11-07T00:41:29.355Z,10.36
2022-11-07T00:43:55.825Z,10.31
2022-11-07T00:46:22.417Z,10.25
2022-11-07T00:48:48.938Z,10.19
2022-11-07T00:51:16.278Z,10.11
2022-11-07T00:53:42.846Z,10.05
2022-11-07T00:56:11.595Z,9.98
2022-11-07T00:58:38.474Z,9.92
2022-11-07T01:01:08.367Z,9.89
2022-11-07T01:03:53.664Z,9.85
2022-11-07T01:06:20.134Z,9.80
2022-11-07T01:08:46.578Z,9.77
2022-11-07T01:11:14.410Z,9.72
2022-11-07T01:13:40.939Z,9.70
2022-11-07T01:16:09.002Z,9.64
2022-11-07T01:18:35.541Z,9.60
2022-11-07T01:21:03.637Z,9.58
2022-11-07T01:23:30.108Z,9.56
2022-11-07T01:25:56.642Z,9.56
2022-11-07T01:28:24.492Z,9.60
2022-11-07T01:30:50.959Z,9.67
2022-11-07T01:33:17.718Z,9.75
2022-11-07T01:35:44.334Z,9.80
2022-11-07T01:38:10.802Z,9.87
2022-11-07T01:41:00.554Z,9.96
2022-11-07T01:43:43.057Z,10.02
2022-11-07T01:46:09.572Z,10.09
2022-11-07T01:48:36.076Z,10.13
2022-11-07T01:51:02.843Z,10.19
2022-11-07T01:53:29.419Z,10.21
2022-11-07T01:55:55.977Z,10.27
2022-11-07T01:58:22.520Z,10.32
2022-11-07T02:00:50.548Z,10.40
2022-11-07T02:03:18.098Z,10.44
2022-11-07T02:05:48.388Z,10.47
2022-11-07T02:08:15.887Z,10.51
2022-11-07T02:10:43.885Z,10.58
2022-11-07T02:13:13.572Z,10.61
2022-11-07T02:15:40.531Z,10.64
2022-11-07T02:18:08.407Z,10.64
2022-11-07T02:20:35.137Z,10.62
2022-11-07T02:23:05.625Z,10.62
2022-11-07T02:25:33.490Z,10.60
2022-11-07T02:28:02.015Z,10.59
2022-11-07T02:30:29.881Z,10.60
2022-11-07T02:32:56.667Z,10.58
2022-11-07T02:35:35.335Z,10.58
2022-11-07T02:38:01.986Z,10.60
2022-11-07T02:40:30.362Z,10.61
2022-11-07T02:42:58.469Z,10.58
2022-11-07T02:45:26.681Z,10.58
2022-11-07T02:47:53.616Z,10.56
2022-11-07T02:50:20.134Z,10.52
2022-11-07T02:52:46.583Z,10.50
2022-11-07T02:55:13.935Z,10.46
2022-11-07T02:57:40.443Z,10.42
2022-11-07T03:00:09.799Z,10.41
2022-11-07T03:02:36.435Z,10.36
2022-11-07T03:05:03.088Z,10.32
2022-11-07T03:07:29.715Z,10.28
2022-11-07T03:09:56.229Z,10.25
2022-11-07T03:12:22.699Z,10.21
2022-11-07T03:14:49.263Z,10.15
2022-11-07T03:17:17.185Z,10.11
2022-11-07T03:19:43.763Z,10.09
2022-11-07T03:22:10.368Z,10.06
2022-11-07T03:24:36.894Z,10.01
2022-11-07T03:27:03.454Z,9.96
2022-11-07T03:29:30.059Z,9.91
2022-11-07T03:31:56.539Z,9.87
2022-11-07T03:34:24.386Z,9.83
2022-11-07T03:36:50.873Z,9.78
2022-11-07T03:39:20.618Z,9.73
2022-11-07T03:41:51.462Z,9.70
2022-11-07T03:44:18.298Z,9.63
2022-11-07T03:46:44.792Z,9.57
2022-11-07T03:49:11.312Z,9.50
2022-11-07T03:51:39.161Z,9.44
2022-11-07T03:54:05.723Z,9.36
2022-11-07T03:56:32.215Z,9.28
2022-11-07T03:58:58.764Z,9.18
2022-11-07T04:01:25.462Z,9.06
2022-11-07T04:03:56.116Z,8.94
2022-11-07T04:06:23.451Z,8.82
2022-11-07T04:08:51.359Z,8.76
2022-11-07T04:11:36.269Z,8.70
2022-11-07T04:14:21.563Z,8.61
2022-11-07T04:17:06.946Z,8.46
2022-11-07T04:19:33.416Z,8.32
2022-11-07T04:21:59.913Z,8.20
2022-11-07T04:24:27.827Z,8.04
2022-11-07T04:27:12.988Z,7.90
2022-11-07T04:29:39.464Z,7.80
2022-11-07T04:32:05.895Z,7.72
2022-11-07T04:34:32.426Z,7.66
2022-11-07T04:36:58.976Z,7.59
2022-11-07T04:39:25.512Z,7.54
2022-11-07T04:41:53.805Z,7.50
2022-11-07T04:44:20.288Z,7.45
2022-11-07T04:46:46.896Z,7.38
2022-11-07T04:49:15.200Z,7.32
2022-11-07T04:51:42.954Z,7.28
2022-11-07T04:54:11.034Z,7.26
2022-11-07T04:56:38.433Z,7.26
2022-11-07T04:59:06.384Z,7.28
2022-11-07T05:01:33.092Z,7.28
2022-11-07T05:03:59.632Z,7.27
2022-11-07T05:06:26.177Z,7.22
2022-11-07T05:08:52.757Z,7.20
2022-11-07T05:11:19.303Z,7.16
2022-11-07T05:13:45.824Z,7.09
2022-11-07T05:16:17.218Z,7.02
2022-11-07T05:18:43.860Z,6.97
2022-11-07T05:21:10.392Z,6.91
2022-11-07T05:23:37.331Z,6.89
2022-11-07T05:26:03.900Z,6.88
2022-11-07T05:28:38.381Z,6.90
2022-11-07T05:31:06.252Z,6.92
2022-11-07T05:33:34.463Z,6.92
2022-11-07T05:36:08.580Z,6.88
2022-11-07T05:38:35.206Z,6.80
2022-11-07T05:41:02.501Z,6.71
2022-11-07T05:43:29.070Z,6.63
2022-11-07T05:45:58.647Z,6.56
2022-11-07T05:48:25.160Z,6.49
2022-11-07T05:50:53.106Z,6.41
2022-11-07T05:53:21.331Z,6.40
2022-11-07T05:55:48.838Z,6.37
2022-11-07T05:58:15.343Z,6.32
2022-11-07T06:00:42.373Z,6.30
2022-11-07T06:03:09.836Z,6.29
2022-11-07T06:05:36.904Z,6.30
2022-11-07T06:08:05.465Z,6.32
2022-11-07T06:10:31.919Z,6.35
2022-11-07T06:12:59.637Z,6.39
2022-11-07T06:15:26.392Z,6.44
2022-11-07T06:17:52.976Z,6.47
2022-11-07T06:20:19.491Z,6.51
2022-11-07T06:22:46.072Z,6.55
2022-11-07T06:25:13.988Z,6.57
2022-11-07T06:27:40.479Z,6.59
2022-11-07T06:30:07.677Z,6.60
2022-11-07T06:32:34.549Z,6.60
2022-11-07T06:35:01.101Z,6.59
2022-11-07T06:37:28.213Z,6.59
2022-11-07T06:39:54.707Z,6.60
2022-11-07T06:42:24.853Z,6.62
2022-11-07T06:44:51.363Z,6.62
2022-11-07T06:47:17.934Z,6.61
2022-11-07T06:49:44.453Z,6.60
2022-11-07T06:52:11.068Z,6.60
2022-11-07T06:54:37.587Z,6.66
2022-11-07T06:57:04.219Z,6.72
2022-11-07T06:59:32.059Z,6.77
2022-11-07T07:01:58.618Z,6.88
2022-11-07T07:04:25.157Z,6.99
2022-11-07T07:06:51.630Z,7.15
2022-11-07T07:09:18.227Z,7.34
2022-11-07T07:11:45.382Z,7.54
2022-11-07T07:14:12.025Z,7.72
2022-11-07T07:16:40.128Z,7.87
2022-11-07T07:19:06.721Z,7.99
2022-11-07T07:21:33.796Z,8.13
2022-11-07T07:24:00.383Z,8.27
2022-11-07T07:26:26.996Z,8.42
2022-11-07T07:28:53.690Z,8.55
2022-11-07T07:31:22.101Z,8.70
2022-11-07T07:33:50.215Z,8.85
2022-11-07T07:36:20.818Z,9.03
2022-11-07T07:38:47.632Z,9.23
2022-11-07T07:41:14.222Z,9.44
2022-11-07T07:43:40.973Z,9.65
2022-11-07T07:46:08.370Z,9.84
2022-11-07T07:48:35.201Z,10.03
2022-11-07T07:51:03.191Z,10.25
2022-11-07T07:53:30.031Z,10.48
2022-11-07T07:55:57.308Z,10.71
2022-11-07T07:58:24.228Z,10.92
2022-11-07T08:00:51.552Z,11.08
2022-11-07T08:03:18.429Z,11.23
2022-11-07T08:05:45.416Z,11.36
2022-11-07T08:08:13.348Z,11.54
2022-11-07T08:10:42.730Z,11.71
2022-11-07T08:13:10.960Z,11.92
2022-11-07T08:15:37.548Z,12.11
2022-11-07T08:18:04.439Z,12.29
2022-11-07T08:20:31.058Z,12.44
2022-11-07T08:23:01.669Z,12.58
2022-11-07T08:25:29.792Z,12.64
2022-11-07T08:27:56.321Z,12.71
2022-11-07T08:30:22.854Z,12.82
2022-11-07T08:32:49.401Z,13.01
2022-11-07T08:35:16.016Z,13.13
2022-11-07T08:37:42.554Z,13.22
2022-11-07T08:40:09.556Z,13.34
2022-11-07T08:42:37.529Z,13.53
2022-11-07T08:45:04.373Z,13.77
2022-11-07T08:47:30.982Z,13.97
2022-11-07T08:49:57.605Z,14.13
2022-11-07T08:52:24.157Z,14.26
2022-11-07T08:54:50.821Z,14.46
2022-11-07T08:57:17.324Z,14.62
2022-11-07T08:59:45.174Z,14.85
2022-11-07T09:04:58.545Z,15.33
2022-11-07T09:07:25.049Z,15.51
2022-11-07T09:09:51.607Z,15.56
2022-11-07T09:12:18.238Z,15.64
2022-11-07T09:14:46.089Z,15.82
2022-11-07T09:17:12.611Z,15.90
2022-11-07T09:19:39.153Z,16.00
2022-11-07T09:22:05.785Z,16.10
2022-11-07T09:24:33.379Z,16.21
2022-11-07T09:26:59.868Z,16.31
2022-11-07T09:29:26.385Z,16.32
2022-11-07T09:31:54.306Z,16.30
2022-11-07T09:34:20.812Z,16.36
2022-11-07T09:36:47.282Z,16.41
2022-11-07T09:39:13.835Z,16.45
2022-11-07T09:41:46.918Z,16.54
2022-11-07T09:44:24.306Z,16.62
2022-11-07T09:46:57.772Z,16.77
2022-11-07T09:49:28.820Z,16.91
2022-11-07T09:51:58.188Z,17.04
2022-11-07T09:54:27.359Z,17.04
2022-11-07T09:56:55.104Z,16.98
2022-11-07T09:59:24.227Z,16.89
2022-11-07T10:01:50.925Z,16.76
2022-11-07T10:04:26.486Z,16.65
2022-11-07T10:06:56.044Z,16.61
2022-11-07T10:09:24.825Z,16.54
2022-11-07T10:11:57.507Z,16.58
2022-11-07T10:14:31.421Z,16.62
2022-11-07T10:17:03.003Z,16.69
2022-11-07T10:19:37.359Z,16.78
2022-11-07T10:22:08.722Z,16.88
2022-11-07T10:24:55.341Z,16.96
2022-11-07T10:27:23.369Z,16.97
2022-11-07T10:29:54.539Z,16.97
2022-11-07T10:32:23.175Z,16.97
2022-11-07T10:34:54.785Z,16.97
2022-11-07T10:37:21.406Z,17.06
2022-11-07T10:39:47.929Z,17.22
2022-11-07T10:42:17.278Z,17.37
2022-11-07T10:44:44.178Z,17.48
2022-11-07T10:47:17.547Z,17.51
2022-11-07T10:49:55.315Z,17.51
2022-11-07T10:52:21.989Z,17.63
2022-11-07T10:54:48.696Z,17.74
2022-11-07T10:57:16.633Z,17.80
2022-11-07T10:59:45.794Z,17.81
2022-11-07T11:02:19.524Z,17.83
2022-11-07T11:04:50.726Z,17.92
2022-11-07T11:07:22.975Z,17.91
2022-11-07T11:09:53.511Z,17.89
2022-11-07T11:12:23.992Z,17.84
2022-11-07T11:14:50.732Z,17.85
2022-11-07T11:17:22.487Z,17.82
2022-11-07T11:19:52.620Z,17.76
2022-11-07T11:22:21.623Z,17.77
2022-11-07T11:24:58.165Z,17.78
2022-11-07T11:27:25.857Z,17.76
2022-11-07T11:29:55.503Z,17.68
2022-11-07T11:32:24.369Z,17.63
2022-11-07T11:35:06.083Z,17.57
2022-11-07T11:37:36.324Z,17.52
2022-11-07T11:40:15.151Z,17.54
2022-11-07T11:42:53.348Z,17.49
2022-11-07T11:45:24.509Z,17.42
2022-11-07T11:47:55.761Z,17.30
2022-11-07T11:50:25.019Z,17.15
2022-11-07T11:52:52.984Z,16.98
2022-11-07T11:55:21.360Z,16.87
2022-11-07T11:57:57.468Z,16.86
2022-11-07T12:00:24.445Z,16.91
2022-11-07T12:03:06.017Z,16.91
2022-11-07T12:05:46.513Z,16.95
2022-11-07T12:08:20.589Z,17.01
2022-11-07T12:10:52.933Z,17.19
2022-11-07T12:13:24.929Z,17.32
2022-11-07T12:15:56.872Z,17.48
2022-11-07T12:18:28.631Z,17.54
2022-11-07T12:21:00.796Z,17.68
2022-11-07T12:23:36.036Z,18.09
2022-11-07T12:26:04.774Z,18.67
2022-11-07T12:28:40.207Z,19.25
2022-11-07T12:31:13.252Z,19.69
2022-11-07T12:33:46.094Z,19.98
2022-11-07T12:36:16.993Z,19.98
2022-11-07T12:38:55.688Z,20.00
2022-11-07T12:41:26.227Z,19.67
2022-11-07T12:43:58.385Z,19.36
2022-11-07T12:46:26.897Z,19.05
2022-11-07T12:49:14.367Z,18.77
2022-11-07T12:51:52.973Z,18.57
2022-11-07T12:54:29.923Z,18.45
2022-11-07T12:56:57.297Z,18.30
2022-11-07T12:59:25.603Z,18.12
2022-11-07T13:01:57.162Z,17.98
2022-11-07T13:04:26.541Z,17.87
2022-11-07T13:06:58.104Z,17.77
2022-11-07T13:09:28.943Z,17.64
2022-11-07T13:11:58.488Z,17.47
2022-11-07T13:14:27.371Z,17.33
2022-11-07T13:17:03.379Z,17.27
2022-11-07T13:19:32.904Z,17.20
2022-11-07T13:22:00.522Z,17.16
2022-11-07T13:24:29.725Z,17.13
2022-11-07T13:26:56.295Z,17.08
2022-11-07T13:29:24.546Z,17.01
2022-11-07T13:31:53.379Z,17.01
2022-11-07T13:34:26.180Z,16.99
2022-11-07T13:36:56.468Z,16.99
2022-11-07T13:39:23.607Z,16.97
2022-11-07T13:41:52.005Z,16.94
2022-11-07T13:44:22.387Z,16.93
2022-11-07T13:46:51.045Z,16.92
2022-11-07T13:49:20.616Z,16.89
2022-11-07T13:51:48.755Z,16.87
2022-11-07T13:54:17.508Z,16.85
2022-11-07T13:56:46.649Z,16.83
2022-11-07T13:59:20.725Z,16.82
2022-11-07T14:01:53.840Z,16.80
2022-11-07T14:04:21.372Z,16.75
2022-11-07T14:06:49.173Z,16.70
2022-11-07T14:09:16.782Z,16.59
2022-11-07T14:11:43.763Z,16.51
2022-11-07T14:14:10.640Z,16.43
2022-11-07T14:16:38.659Z,16.36
2022-11-07T14:19:06.560Z,16.29
2022-11-07T14:21:34.281Z,16.22
2022-11-07T14:24:01.392Z,16.16
2022-11-07T14:26:30.705Z,16.09
2022-11-07T14:28:57.810Z,16.06
2022-11-07T14:31:26.174Z,16.01
2022-11-07T14:33:55.552Z,15.96
2022-11-07T14:36:22.315Z,15.93
2022-11-07T14:38:50.110Z,15.91
2022-11-07T14:41:19.787Z,15.88
2022-11-07T14:43:46.959Z,15.84
2022-11-07T14:46:16.282Z,15.78
2022-11-07T14:48:43.746Z,15.74
2022-11-07T14:51:13.235Z,15.70
2022-11-07T14:53:48.837Z,15.64
2022-11-07T14:56:16.317Z,15.54
2022-11-07T14:58:42.863Z,15.48
2022-11-07T15:01:14.132Z,15.42
2022-11-07T15:03:50.362Z,15.36
2022-11-07T15:06:23.963Z,15.31
2022-11-07T15:08:57.580Z,15.26
2022-11-07T15:11:25.131Z,15.16
2022-11-07T15:13:52.221Z,15.06
2022-11-07T15:16:20.079Z,15.00
2022-11-07T15:18:48.178Z,14.93
2022-11-07T15:21:31.451Z,14.86
2022-11-07T15:24:00.449Z,14.75
2022-11-07T15:26:30.226Z,14.62
2022-11-07T15:29:01.366Z,14.54
2022-11-07T15:31:29.636Z,14.46
2022-11-07T15:33:57.280Z,14.36
2022-11-07T15:36:24.423Z,14.22
2022-11-07T15:38:51.457Z,14.08
2022-11-07T15:41:19.403Z,13.92
2022-11-07T15:43:45.927Z,13.79
2022-11-07T15:46:20.909Z,13.69
2022-11-07T15:48:48.863Z,13.59
2022-11-07T15:51:15.603Z,13.50
2022-11-07T15:53:42.114Z,13.35
2022-11-07T15:56:11.734Z,13.17
2022-11-07T15:58:39.733Z,13.04
2022-11-07T16:01:06.511Z,12.90
2022-11-07T16:03:33.025Z,12.79
2022-11-07T16:06:03.021Z,12.69
2022-11-07T16:08:30.476Z,12.57
2022-11-07T16:10:58.677Z,12.43
2022-11-07T16:13:25.157Z,12.29
2022-11-07T16:15:54.611Z,12.12
2022-11-07T16:18:21.890Z,11.96
2022-11-07T16:20:49.254Z,11.78
2022-11-07T16:23:16.236Z,11.63
2022-11-07T16:25:44.588Z,11.51
2022-11-07T16:28:21.460Z,11.41
2022-11-07T16:30:47.971Z,11.36
2022-11-07T16:33:15.832Z,11.34
2022-11-07T16:35:42.561Z,11.33
2022-11-07T16:38:12.158Z,11.26
2022-11-07T16:40:38.646Z,11.14
2022-11-07T16:43:05.674Z,11.03
2022-11-07T16:45:32.598Z,10.93
2022-11-07T16:47:59.229Z,10.81
2022-11-07T16:50:27.341Z,10.72
2022-11-07T16:52:53.879Z,10.64
2022-11-07T16:55:20.496Z,10.61
2022-11-07T16:57:47.364Z,10.55
2022-11-07T17:00:18.182Z,10.47
2022-11-07T17:02:45.016Z,10.39
2022-11-07T17:05:11.749Z,10.29
2022-11-07T17:07:40.347Z,10.20
2022-11-07T17:10:07.910Z,10.18
2022-11-07T17:12:34.466Z,10.14
2022-11-07T17:15:01.018Z,10.18
2022-11-07T17:17:27.505Z,10.24
2022-11-07T17:19:53.987Z,10.28
2022-11-07T17:22:20.556Z,10.32
2022-11-07T17:24:48.447Z,10.30
2022-11-07T17:27:22.623Z,10.21
2022-11-07T17:29:49.289Z,10.12
2022-11-07T17:32:16.043Z,9.98
2022-11-07T17:34:42.879Z,9.88
2022-11-07T17:37:12.793Z,9.83
2022-11-07T17:39:39.444Z,9.81
2022-11-07T17:42:08.611Z,9.79
2022-11-07T17:44:35.303Z,9.73
2022-11-07T17:47:02.692Z,9.61
2022-11-07T17:49:29.291Z,9.50
2022-11-07T17:51:56.095Z,9.43
2022-11-07T17:54:26.791Z,9.39
2022-11-07T17:56:55.949Z,9.41
2022-11-07T17:59:24.088Z,9.40
2022-11-07T18:01:50.710Z,9.43
2022-11-07T18:04:17.311Z,9.49
2022-11-07T18:06:43.854Z,9.52
2022-11-07T18:09:13.112Z,9.53
2022-11-07T18:11:39.647Z,9.55
2022-11-07T18:14:06.143Z,9.56
2022-11-07T18:16:36.024Z,9.59
2022-11-07T18:19:03.409Z,9.58
2022-11-07T18:21:30.075Z,9.55
2022-11-07T18:23:57.048Z,9.50
2022-11-07T18:26:30.750Z,9.48
2022-11-07T18:29:00.096Z,9.49
2022-11-07T18:31:26.566Z,9.51
2022-11-07T18:33:57.295Z,9.51
2022-11-07T18:36:24.114Z,9.50
2022-11-07T18:38:50.861Z,9.51
2022-11-07T18:41:19.297Z,9.51
2022-11-07T18:43:45.828Z,9.54
2022-11-07T18:46:14.914Z,9.57
2022-11-07T18:48:41.978Z,9.55
2022-11-07T18:51:11.416Z,9.55
2022-11-07T18:53:38.639Z,9.54
2022-11-07T18:56:07.082Z,9.51
2022-11-07T18:58:35.029Z,9.47
2022-11-07T19:01:01.983Z,9.41
2022-11-07T19:03:29.794Z,9.37
2022-11-07T19:06:00.735Z,9.35
2022-11-07T19:08:30.367Z,9.37
2022-11-07T19:10:57.743Z,9.35
2022-11-07T19:13:24.498Z,9.37
2022-11-07T19:15:51.044Z,9.37
2022-11-07T19:18:17.993Z,9.36
2022-11-07T19:20:44.917Z,9.34
2022-11-07T19:23:14.581Z,9.28
2022-11-07T19:25:42.618Z,9.22
2022-11-07T19:28:09.753Z,9.14
2022-11-07T19:30:36.507Z,9.09
2022-11-07T19:33:03.491Z,8.99
2022-11-07T19:35:30.344Z,8.92
2022-11-07T19:37:56.972Z,8.85
2022-11-07T19:40:23.673Z,8.78
2022-11-07T19:42:51.692Z,8.68
2022-11-07T19:45:21.022Z,8.60
2022-11-07T19:47:48.704Z,8.51
2022-11-07T19:50:15.683Z,8.46
2022-11-07T19:52:42.225Z,8.46
2022-11-07T19:55:08.982Z,8.47
2022-11-07T19:57:35.664Z,8.45
2022-11-07T20:00:05.172Z,8.39
2022-11-07T20:02:34.442Z,8.33
2022-11-07T20:05:03.084Z,8.31
2022-11-07T20:07:29.536Z,8.32
2022-11-07T20:09:59.749Z,8.31
2022-11-07T20:12:26.292Z,8.32
2022-11-07T20:14:52.925Z,8.34
2022-11-07T20:17:20.881Z,8.37
2022-11-07T20:19:47.500Z,8.41
2022-11-07T20:22:13.989Z,8.43
2022-11-07T20:24:40.522Z,8.44
2022-11-07T20:27:06.991Z,8.45
2022-11-07T20:29:33.570Z,8.43
2022-11-07T20:32:00.083Z,8.45
2022-11-07T20:34:28.233Z,8.46
2022-11-07T20:36:54.714Z,8.46
2022-11-07T20:39:21.218Z,8.45
2022-11-07T20:41:47.724Z,8.42
2022-11-07T20:44:14.920Z,8.39
2022-11-07T20:46:42.515Z,8.37
2022-11-07T20:49:10.929Z,8.36
2022-11-07T20:51:39.451Z,8.34
2022-11-07T20:54:06.053Z,8.34
2022-11-07T20:56:33.209Z,8.34
2022-11-07T20:58:59.718Z,8.34
2022-11-07T21:01:27.573Z,8.31
2022-11-07T21:03:54.386Z,8.26
2022-11-07T21:06:21.169Z,8.22
2022-11-07T21:08:50.239Z,8.17
2022-11-07T21:11:17.028Z,8.12
2022-11-07T21:13:49.697Z,8.07
2022-11-07T21:16:19.638Z,7.99
2022-11-07T21:18:46.112Z,7.88
2022-11-07T21:21:13.541Z,7.79
2022-11-07T21:23:40.057Z,7.72
2022-11-07T21:26:09.541Z,7.68
2022-11-07T21:28:39.644Z,7.64
2022-11-07T21:31:07.593Z,7.57
2022-11-07T21:33:34.508Z,7.53
2022-11-07T21:36:01.051Z,7.50
2022-11-07T21:38:27.477Z,7.45
2022-11-07T21:40:54.395Z,7.44
2022-11-07T21:43:22.212Z,7.43
2022-11-07T21:45:48.809Z,7.39
2022-11-07T21:48:16.567Z,7.38
2022-11-07T21:50:45.054Z,7.36
2022-11-07T21:53:11.932Z,7.34
2022-11-07T21:55:38.470Z,7.31
2022-11-07T21:58:04.966Z,7.28
2022-11-07T22:00:36.475Z,7.28
2022-11-07T22:03:04.064Z,7.24
2022-11-07T22:05:30.568Z,7.24
2022-11-07T22:07:57.053Z,7.24
2022-11-07T22:10:23.513Z,7.26
2022-11-07T22:12:52.277Z,7.22
2022-11-07T22:15:18.831Z,7.21
2022-11-07T22:17:46.890Z,7.20
2022-11-07T22:20:13.425Z,7.17
2022-11-07T22:22:40.064Z,7.15
2022-11-07T22:25:06.991Z,7.10
2022-11-07T22:27:33.507Z,7.07
2022-11-07T22:29:59.960Z,7.04
2022-11-07T22:32:26.450Z,7.02
2022-11-07T22:34:54.343Z,7.00
2022-11-07T22:37:20.843Z,6.99
2022-11-07T22:39:47.343Z,6.97
2022-11-07T22:42:14.010Z,6.97
2022-11-07T22:44:40.595Z,6.98
2022-11-07T22:47:07.121Z,7.01
2022-11-07T22:49:33.789Z,7.01
2022-11-07T22:52:01.771Z,7.00
2022-11-07T22:54:28.254Z,7.01
2022-11-07T22:56:54.792Z,7.01
2022-11-07T22:59:21.422Z,7.01
2022-11-07T23:01:48.050Z,7.00
2022-11-07T23:04:15.307Z,7.00
2022-11-07T23:06:42.175Z,6.95
2022-11-07T23:09:12.174Z,6.85
2022-11-07T23:11:47.703Z,6.78
2022-11-07T23:14:16.241Z,6.74
2022-11-07T23:16:43.925Z,6.74
2022-11-07T23:19:11.745Z,6.74
2022-11-07T23:21:38.698Z,6.71
2022-11-07T23:24:05.773Z,6.67
2022-11-07T23:26:34.248Z,6.62
2022-11-07T23:29:07.343Z,6.56
2022-11-07T23:31:36.847Z,6.51
2022-11-07T23:34:03.361Z,6.48
2022-11-07T23:36:29.842Z,6.45
2022-11-07T23:38:56.424Z,6.44
2022-11-07T23:41:22.887Z,6.44
2022-11-07T23:43:52.659Z,6.45
2022-11-07T23:46:38.603Z,6.44
2022-11-07T23:49:23.816Z,6.45
2022-11-07T23:51:50.337Z,6.46
2022-11-07T23:54:35.586Z,6.48
2022-11-07T23:57:02.129Z,6.48
2022-11-07T23:59:48.961Z,6.46
